createdAt,value
2018-02-16T00:00:10.957Z,39.98
2018-02-16T00:01:13.463Z,40.05
2018-02-16T00:02:15.941Z,40.04
2018-02-16T00:03:18.402Z,40.08
2018-02-16T00:04:20.883Z,40.12
2018-02-16T00:05:23.364Z,40.21
2018-02-16T00:06:25.864Z,40.27
2018-02-16T00:07:28.327Z,40.38
2018-02-16T00:08:30.795Z,40.49
2018-02-16T00:09:33.259Z,40.58
2018-02-16T00:10:35.731Z,40.65
2018-02-16T00:11:38.223Z,40.65
2018-02-16T00:12:40.686Z,40.55
2018-02-16T00:13:43.165Z,40.48
2018-02-16T00:14:45.644Z,40.43
2018-02-16T00:15:48.110Z,40.43
2018-02-16T00:16:50.610Z,40.42
2018-02-16T00:17:53.075Z,40.36
2018-02-16T00:18:55.552Z,40.34
2018-02-16T00:19:58.015Z,40.35
2018-02-16T00:21:00.477Z,40.36
2018-02-16T00:22:02.958Z,40.41
2018-02-16T00:23:05.465Z,40.46
2018-02-16T00:24:07.976Z,40.56
2018-02-16T00:25:10.455Z,40.67
2018-02-16T00:26:12.921Z,40.77
2018-02-16T00:27:15.421Z,40.78
2018-02-16T00:28:17.891Z,40.79
2018-02-16T00:29:20.355Z,40.74
2018-02-16T00:30:22.814Z,40.67
2018-02-16T00:31:25.297Z,40.49
2018-02-16T00:32:27.808Z,40.40
2018-02-16T00:33:30.289Z,40.37
2018-02-16T00:34:32.769Z,40.38
2018-02-16T00:35:35.239Z,40.43
2018-02-16T00:36:37.706Z,40.46
2018-02-16T00:37:40.195Z,40.48
2018-02-16T00:38:42.658Z,40.53
2018-02-16T00:39:45.146Z,40.58
2018-02-16T00:40:47.635Z,40.66
2018-02-16T00:41:50.113Z,40.78
2018-02-16T00:42:52.617Z,40.92
2018-02-16T00:43:55.078Z,40.98
2018-02-16T00:44:57.557Z,41.00
2018-02-16T00:46:00.030Z,41.02
2018-02-16T00:47:02.498Z,40.82
2018-02-16T00:48:04.979Z,40.71
2018-02-16T00:49:07.443Z,40.58
2018-02-16T00:50:09.902Z,40.55
2018-02-16T00:51:12.367Z,40.49
2018-02-16T00:52:14.843Z,40.45
2018-02-16T00:53:17.330Z,40.43
2018-02-16T00:54:19.808Z,40.50
2018-02-16T00:55:22.290Z,40.59
2018-02-16T00:56:24.773Z,40.68
2018-02-16T00:57:27.254Z,40.79
2018-02-16T00:58:29.757Z,40.92
2018-02-16T00:59:32.240Z,41.02
2018-02-16T01:00:34.707Z,41.07
2018-02-16T01:01:37.202Z,41.07
2018-02-16T01:02:39.681Z,41.03
2018-02-16T01:03:42.230Z,41.01
2018-02-16T01:04:44.696Z,40.86
2018-02-16T01:05:47.197Z,40.72
2018-02-16T01:06:49.658Z,40.66
2018-02-16T01:07:52.133Z,40.64
2018-02-16T01:08:54.621Z,40.69
2018-02-16T01:09:57.101Z,40.66
2018-02-16T01:10:59.581Z,40.69
2018-02-16T01:12:02.053Z,40.71
2018-02-16T01:13:04.537Z,40.74
2018-02-16T01:14:07.042Z,40.80
2018-02-16T01:15:09.525Z,40.91
2018-02-16T01:16:12.005Z,41.00
2018-02-16T01:17:14.475Z,41.09
2018-02-16T01:18:16.939Z,41.16
2018-02-16T01:19:19.426Z,41.09
2018-02-16T01:20:21.891Z,41.06
2018-02-16T01:21:24.355Z,41.00
2018-02-16T01:22:26.840Z,40.84
2018-02-16T01:23:29.321Z,40.89
2018-02-16T01:24:31.837Z,40.86
2018-02-16T01:25:34.332Z,40.79
2018-02-16T01:26:36.795Z,40.83
2018-02-16T01:27:39.283Z,40.85
2018-02-16T01:28:41.757Z,40.93
2018-02-16T01:29:44.243Z,40.98
2018-02-16T01:30:46.716Z,41.04
2018-02-16T01:31:49.187Z,41.15
2018-02-16T01:32:51.668Z,41.21
2018-02-16T01:33:54.136Z,41.28
2018-02-16T01:34:56.631Z,41.29
2018-02-16T01:35:59.095Z,41.35
2018-02-16T01:37:01.593Z,41.34
2018-02-16T01:38:04.065Z,41.20
2018-02-16T01:39:06.535Z,41.13
2018-02-16T01:40:09.023Z,40.97
2018-02-16T01:41:11.499Z,40.95
2018-02-16T01:42:13.982Z,40.92
2018-02-16T01:43:16.457Z,40.98
2018-02-16T01:44:18.922Z,40.95
2018-02-16T01:45:21.429Z,41.00
2018-02-16T01:46:23.897Z,41.06
2018-02-16T01:47:26.353Z,41.14
2018-02-16T01:48:28.828Z,41.21
2018-02-16T01:49:31.316Z,41.33
2018-02-16T01:50:33.819Z,41.42
2018-02-16T01:51:36.297Z,41.42
2018-02-16T01:52:38.773Z,41.46
2018-02-16T01:53:41.257Z,41.37
2018-02-16T01:54:43.742Z,41.31
2018-02-16T01:55:46.241Z,41.29
2018-02-16T01:56:48.710Z,41.07
2018-02-16T01:57:51.183Z,41.08
2018-02-16T01:58:53.665Z,41.04
2018-02-16T01:59:56.130Z,41.05
2018-02-16T02:00:58.627Z,41.02
2018-02-16T02:02:01.088Z,41.10
2018-02-16T02:03:03.553Z,41.16
2018-02-16T02:04:06.025Z,41.20
2018-02-16T02:05:08.491Z,41.35
2018-02-16T02:06:10.995Z,41.44
2018-02-16T02:07:13.462Z,41.54
2018-02-16T02:08:15.937Z,41.63
2018-02-16T02:09:18.407Z,41.59
2018-02-16T02:10:20.870Z,41.51
2018-02-16T02:11:23.372Z,41.40
2018-02-16T02:12:25.839Z,41.31
2018-02-16T02:13:28.321Z,41.17
2018-02-16T02:14:30.891Z,41.11
2018-02-16T02:15:33.360Z,41.20
2018-02-16T02:16:35.852Z,41.25
2018-02-16T02:17:38.333Z,41.29
2018-02-16T02:18:40.812Z,41.37
2018-02-16T02:19:43.299Z,41.42
2018-02-16T02:20:45.767Z,41.48
2018-02-16T02:21:48.266Z,41.64
2018-02-16T02:22:50.740Z,41.70
2018-02-16T02:23:53.222Z,41.83
2018-02-16T02:24:55.705Z,41.90
2018-02-16T02:25:58.174Z,41.92
2018-02-16T02:27:00.658Z,41.90
2018-02-16T02:28:03.148Z,41.78
2018-02-16T02:29:05.618Z,41.71
2018-02-16T02:30:08.092Z,41.64
2018-02-16T02:31:10.574Z,41.56
2018-02-16T02:32:13.184Z,41.55
2018-02-16T02:33:15.648Z,41.55
2018-02-16T02:34:18.129Z,41.55
2018-02-16T02:35:20.614Z,41.58
2018-02-16T02:36:23.099Z,41.67
2018-02-16T02:37:25.596Z,41.76
2018-02-16T02:38:28.081Z,41.88
2018-02-16T02:39:30.564Z,41.97
2018-02-16T02:40:33.038Z,42.03
2018-02-16T02:41:35.536Z,42.16
2018-02-16T02:42:38.035Z,42.16
2018-02-16T02:43:40.500Z,42.16
2018-02-16T02:44:42.985Z,42.16
2018-02-16T02:45:45.454Z,42.01
2018-02-16T02:46:47.924Z,41.96
2018-02-16T02:47:50.415Z,41.92
2018-02-16T02:48:52.883Z,41.80
2018-02-16T02:49:55.365Z,41.84
2018-02-16T02:50:57.847Z,41.83
2018-02-16T02:52:00.327Z,41.94
2018-02-16T02:53:02.823Z,42.04
2018-02-16T02:54:05.286Z,42.11
2018-02-16T02:55:07.765Z,42.29
2018-02-16T02:56:10.245Z,42.33
2018-02-16T02:57:12.711Z,42.44
2018-02-16T02:58:15.216Z,42.56
2018-02-16T02:59:17.698Z,42.48
2018-02-16T03:00:20.181Z,42.51
2018-02-16T03:01:22.660Z,42.42
2018-02-16T03:02:25.126Z,42.43
2018-02-16T03:03:27.606Z,42.25
2018-02-16T03:04:30.074Z,42.25
2018-02-16T03:05:32.546Z,42.21
2018-02-16T03:06:35.006Z,42.22
2018-02-16T03:07:37.486Z,42.24
2018-02-16T03:08:39.988Z,42.24
2018-02-16T03:09:42.469Z,42.27
2018-02-16T03:10:44.953Z,42.34
2018-02-16T03:11:47.414Z,42.39
2018-02-16T03:12:49.881Z,42.51
2018-02-16T03:13:52.380Z,42.61
2018-02-16T03:14:54.858Z,42.65
2018-02-16T03:15:57.326Z,42.71
2018-02-16T03:16:59.790Z,42.59
2018-02-16T03:18:02.293Z,42.49
2018-02-16T03:19:04.797Z,42.49
2018-02-16T03:20:07.278Z,42.45
2018-02-16T03:21:09.766Z,42.39
2018-02-16T03:22:12.230Z,42.30
2018-02-16T03:23:14.695Z,42.32
2018-02-16T03:24:17.194Z,42.31
2018-02-16T03:25:19.659Z,42.27
2018-02-16T03:26:22.143Z,42.43
2018-02-16T03:27:24.607Z,42.46
2018-02-16T03:28:27.071Z,42.50
2018-02-16T03:29:29.559Z,42.54
2018-02-16T03:30:32.045Z,42.66
2018-02-16T03:31:34.532Z,42.72
2018-02-16T03:32:36.994Z,42.75
2018-02-16T03:33:39.473Z,42.62
2018-02-16T03:34:41.963Z,42.58
2018-02-16T03:35:44.428Z,42.50
2018-02-16T03:36:46.915Z,42.40
2018-02-16T03:37:49.396Z,42.29
2018-02-16T03:38:51.881Z,42.25
2018-02-16T03:39:54.371Z,42.18
2018-02-16T03:40:56.855Z,42.23
2018-02-16T03:41:59.345Z,42.22
2018-02-16T03:43:01.821Z,42.22
2018-02-16T03:44:04.289Z,42.25
2018-02-16T03:45:06.774Z,42.30
2018-02-16T03:46:09.262Z,42.40
2018-02-16T03:47:11.739Z,42.56
2018-02-16T03:48:14.202Z,42.71
2018-02-16T03:49:16.675Z,42.79
2018-02-16T03:50:19.171Z,42.59
2018-02-16T03:51:21.645Z,42.59
2018-02-16T03:52:24.110Z,42.47
2018-02-16T03:53:26.589Z,42.43
2018-02-16T03:54:29.058Z,42.31
2018-02-16T03:55:31.543Z,42.29
2018-02-16T03:56:34.031Z,42.24
2018-02-16T03:57:36.514Z,42.26
2018-02-16T03:58:38.997Z,42.28
2018-02-16T03:59:41.475Z,42.33
2018-02-16T04:00:43.973Z,42.42
2018-02-16T04:01:46.441Z,42.50
2018-02-16T04:02:48.902Z,42.63
2018-02-16T04:03:51.374Z,42.71
2018-02-16T04:04:53.839Z,42.79
2018-02-16T04:05:56.327Z,42.80
2018-02-16T04:06:58.805Z,42.77
2018-02-16T04:08:01.275Z,42.69
2018-02-16T04:09:03.739Z,42.55
2018-02-16T04:10:06.208Z,42.54
2018-02-16T04:11:08.703Z,42.53
2018-02-16T04:12:11.163Z,42.43
2018-02-16T04:13:13.641Z,42.31
2018-02-16T04:14:16.116Z,42.32
2018-02-16T04:15:18.597Z,42.29
2018-02-16T04:16:21.098Z,42.41
2018-02-16T04:17:23.577Z,42.59
2018-02-16T04:18:26.057Z,42.67
2018-02-16T04:19:28.522Z,42.76
2018-02-16T04:20:30.987Z,42.82
2018-02-16T04:21:33.474Z,42.95
2018-02-16T04:22:36.159Z,42.98
2018-02-16T04:23:38.677Z,42.98
2018-02-16T04:24:41.146Z,42.88
2018-02-16T04:25:43.621Z,42.78
2018-02-16T04:26:46.107Z,42.70
2018-02-16T04:27:48.584Z,42.61
2018-02-16T04:28:51.055Z,42.56
2018-02-16T04:29:53.534Z,42.46
2018-02-16T04:30:55.994Z,42.47
2018-02-16T04:31:58.482Z,42.54
2018-02-16T04:33:00.964Z,42.53
2018-02-16T04:34:03.462Z,42.65
2018-02-16T04:35:08.557Z,42.66
2018-02-16T04:36:11.027Z,42.77
2018-02-16T04:37:13.510Z,42.85
2018-02-16T04:38:15.981Z,43.00
2018-02-16T04:39:18.463Z,42.98
2018-02-16T04:40:20.947Z,42.97
2018-02-16T04:41:23.412Z,42.91
2018-02-16T04:42:25.926Z,42.89
2018-02-16T04:43:28.441Z,42.71
2018-02-16T04:44:30.894Z,42.63
2018-02-16T04:45:33.413Z,42.61
2018-02-16T04:46:35.896Z,42.61
2018-02-16T04:47:38.388Z,42.61
2018-02-16T04:48:40.855Z,42.55
2018-02-16T04:49:43.318Z,42.61
2018-02-16T04:50:45.802Z,42.59
2018-02-16T04:51:48.264Z,42.72
2018-02-16T04:52:50.752Z,42.96
2018-02-16T04:53:53.237Z,43.04
2018-02-16T04:54:55.702Z,43.09
2018-02-16T04:55:58.181Z,43.18
2018-02-16T04:57:00.646Z,43.18
2018-02-16T04:58:03.149Z,43.07
2018-02-16T04:59:05.620Z,43.04
2018-02-16T05:00:08.083Z,42.93
2018-02-16T05:01:10.564Z,42.83
2018-02-16T05:02:13.131Z,42.73
2018-02-16T05:03:15.615Z,42.73
2018-02-16T05:04:18.080Z,42.67
2018-02-16T05:05:20.552Z,42.76
2018-02-16T05:06:23.015Z,42.79
2018-02-16T05:07:25.502Z,42.83
2018-02-16T05:08:28.000Z,42.91
2018-02-16T05:09:30.463Z,43.05
2018-02-16T05:10:32.950Z,43.18
2018-02-16T05:11:35.413Z,43.26
2018-02-16T05:12:37.966Z,43.27
2018-02-16T05:13:40.459Z,43.14
2018-02-16T05:14:42.923Z,43.12
2018-02-16T05:15:45.391Z,43.03
2018-02-16T05:16:47.855Z,43.08
2018-02-16T05:17:50.427Z,43.01
2018-02-16T05:18:52.938Z,43.00
2018-02-16T05:19:55.402Z,42.97
2018-02-16T05:20:57.884Z,42.92
2018-02-16T05:22:00.357Z,42.84
2018-02-16T05:23:02.839Z,42.85
2018-02-16T05:24:05.335Z,42.94
2018-02-16T05:25:07.818Z,42.99
2018-02-16T05:26:10.282Z,43.02
2018-02-16T05:27:12.746Z,43.15
2018-02-16T05:28:15.220Z,43.21
2018-02-16T05:29:17.722Z,43.33
2018-02-16T05:30:20.197Z,43.31
2018-02-16T05:31:22.666Z,43.17
2018-02-16T05:32:25.147Z,43.02
2018-02-16T05:33:27.619Z,42.93
2018-02-16T05:34:30.100Z,42.86
2018-02-16T05:35:32.580Z,42.89
2018-02-16T05:36:35.068Z,42.85
2018-02-16T05:37:37.534Z,42.82
2018-02-16T05:38:39.990Z,42.87
2018-02-16T05:39:42.493Z,42.93
2018-02-16T05:40:44.988Z,42.98
2018-02-16T05:41:47.466Z,43.12
2018-02-16T05:42:49.930Z,43.22
2018-02-16T05:43:52.441Z,43.13
2018-02-16T05:44:54.941Z,43.29
2018-02-16T05:45:57.447Z,43.25
2018-02-16T05:46:59.910Z,43.18
2018-02-16T05:48:02.388Z,43.16
2018-02-16T05:49:04.860Z,43.13
2018-02-16T05:50:07.391Z,42.94
2018-02-16T05:51:09.869Z,42.85
2018-02-16T05:52:12.358Z,42.84
2018-02-16T05:53:14.822Z,42.77
2018-02-16T05:54:17.299Z,42.79
2018-02-16T05:55:19.784Z,42.80
2018-02-16T05:56:22.248Z,42.84
2018-02-16T05:57:24.707Z,42.98
2018-02-16T05:58:27.947Z,43.02
2018-02-16T05:59:30.420Z,43.11
2018-02-16T06:00:32.910Z,43.17
2018-02-16T06:01:35.393Z,43.26
2018-02-16T06:02:37.863Z,43.28
2018-02-16T06:03:40.345Z,43.28
2018-02-16T06:04:42.824Z,43.17
2018-02-16T06:05:45.324Z,43.09
2018-02-16T06:06:47.787Z,42.99
2018-02-16T06:07:50.264Z,42.89
2018-02-16T06:08:52.727Z,42.78
2018-02-16T06:09:55.198Z,42.67
2018-02-16T06:10:57.700Z,42.70
2018-02-16T06:12:00.193Z,42.75
2018-02-16T06:13:02.659Z,42.79
2018-02-16T06:14:05.118Z,42.84
2018-02-16T06:15:07.590Z,42.93
2018-02-16T06:16:10.128Z,42.99
2018-02-16T06:17:12.594Z,43.13
2018-02-16T06:18:15.073Z,43.22
2018-02-16T06:19:17.558Z,43.23
2018-02-16T06:20:20.051Z,43.22
2018-02-16T06:21:22.548Z,43.22
2018-02-16T06:22:25.037Z,43.13
2018-02-16T06:23:27.503Z,42.95
2018-02-16T06:24:29.976Z,42.87
2018-02-16T06:25:32.453Z,42.77
2018-02-16T06:26:35.013Z,42.77
2018-02-16T06:27:37.490Z,42.81
2018-02-16T06:28:39.970Z,42.83
2018-02-16T06:29:42.445Z,42.84
2018-02-16T06:30:44.914Z,42.90
2018-02-16T06:31:47.402Z,42.97
2018-02-16T06:32:49.866Z,43.07
2018-02-16T06:33:52.335Z,43.15
2018-02-16T06:34:54.816Z,43.19
2018-02-16T06:35:57.291Z,43.27
2018-02-16T06:36:59.801Z,43.32
2018-02-16T06:38:02.276Z,43.27
2018-02-16T06:39:04.839Z,43.14
2018-02-16T06:40:07.304Z,43.02
2018-02-16T06:41:09.767Z,42.92
2018-02-16T06:42:12.348Z,42.89
2018-02-16T06:43:14.810Z,42.87
2018-02-16T06:44:17.275Z,42.81
2018-02-16T06:45:19.734Z,42.86
2018-02-16T06:46:22.206Z,42.84
2018-02-16T06:47:24.708Z,42.88
2018-02-16T06:48:27.827Z,42.97
2018-02-16T06:49:30.292Z,43.05
2018-02-16T06:50:32.751Z,43.26
2018-02-16T06:51:35.229Z,43.33
2018-02-16T06:52:37.848Z,43.40
2018-02-16T06:53:40.329Z,43.42
2018-02-16T06:54:42.833Z,43.44
2018-02-16T06:55:45.313Z,43.31
2018-02-16T06:56:47.776Z,43.20
2018-02-16T06:57:50.341Z,43.15
2018-02-16T06:58:52.817Z,43.08
2018-02-16T06:59:55.293Z,43.09
2018-02-16T07:00:57.759Z,43.08
2018-02-16T07:02:00.267Z,43.02
2018-02-16T07:03:02.832Z,43.05
2018-02-16T07:04:05.313Z,43.15
2018-02-16T07:05:07.803Z,43.18
2018-02-16T07:06:10.267Z,43.22
2018-02-16T07:07:12.734Z,43.27
2018-02-16T07:08:15.237Z,43.46
2018-02-16T07:09:17.713Z,43.59
2018-02-16T07:10:20.192Z,43.52
2018-02-16T07:11:22.654Z,43.43
2018-02-16T07:12:25.133Z,43.41
2018-02-16T07:13:27.635Z,43.34
2018-02-16T07:14:30.103Z,43.24
2018-02-16T07:15:32.591Z,43.06
2018-02-16T07:16:35.073Z,43.01
2018-02-16T07:17:37.536Z,43.03
2018-02-16T07:18:40.014Z,43.04
2018-02-16T07:19:42.506Z,43.11
2018-02-16T07:20:44.971Z,43.09
2018-02-16T07:21:47.430Z,43.19
2018-02-16T07:22:49.891Z,43.23
2018-02-16T07:23:52.403Z,43.32
2018-02-16T07:24:54.886Z,43.39
2018-02-16T07:25:57.355Z,43.37
2018-02-16T07:26:59.819Z,43.33
2018-02-16T07:28:02.293Z,43.26
2018-02-16T07:29:04.803Z,43.16
2018-02-16T07:30:07.297Z,43.07
2018-02-16T07:31:09.773Z,42.97
2018-02-16T07:32:12.261Z,42.95
2018-02-16T07:33:14.749Z,42.90
2018-02-16T07:34:17.247Z,42.90
2018-02-16T07:35:19.706Z,42.93
2018-02-16T07:36:22.193Z,42.98
2018-02-16T07:37:24.663Z,43.06
2018-02-16T07:38:27.839Z,43.08
2018-02-16T07:39:30.352Z,43.16
2018-02-16T07:40:32.831Z,43.28
2018-02-16T07:41:35.299Z,43.40
2018-02-16T07:42:37.788Z,43.48
2018-02-16T07:43:40.271Z,43.52
2018-02-16T07:44:42.777Z,43.53
2018-02-16T07:45:45.248Z,43.38
2018-02-16T07:46:47.724Z,43.30
2018-02-16T07:47:50.205Z,43.29
2018-02-16T07:48:52.685Z,43.28
2018-02-16T07:49:55.171Z,43.15
2018-02-16T07:50:57.654Z,43.14
2018-02-16T07:52:00.132Z,43.14
2018-02-16T07:53:02.604Z,43.22
2018-02-16T07:54:05.288Z,43.25
2018-02-16T07:55:07.778Z,43.34
2018-02-16T07:56:10.253Z,43.44
2018-02-16T07:57:12.729Z,43.48
2018-02-16T07:58:15.198Z,43.63
2018-02-16T07:59:17.666Z,43.71
2018-02-16T08:00:20.398Z,43.67
2018-02-16T08:01:22.893Z,43.58
2018-02-16T08:02:25.481Z,43.41
2018-02-16T08:03:27.968Z,43.29
2018-02-16T08:04:30.432Z,43.30
2018-02-16T08:05:32.915Z,43.26
2018-02-16T08:06:35.419Z,43.29
2018-02-16T08:07:38.073Z,43.22
2018-02-16T08:08:40.546Z,43.24
2018-02-16T08:09:43.006Z,43.22
2018-02-16T08:10:45.491Z,43.29
2018-02-16T08:11:47.954Z,43.33
2018-02-16T08:12:50.419Z,43.45
2018-02-16T08:13:52.904Z,43.60
2018-02-16T08:14:55.590Z,43.67
2018-02-16T08:15:58.144Z,43.67
2018-02-16T08:17:00.627Z,43.14
2018-02-16T08:18:03.104Z,42.55
2018-02-16T08:19:05.566Z,41.11
2018-02-16T08:20:08.050Z,40.28
2018-02-16T08:21:10.549Z,39.72
2018-02-16T08:22:13.025Z,38.93
2018-02-16T08:23:15.503Z,38.39
2018-02-16T08:24:17.970Z,37.83
2018-02-16T08:25:20.449Z,37.78
2018-02-16T08:26:22.958Z,37.50
2018-02-16T08:27:25.448Z,37.15
2018-02-16T08:28:27.930Z,37.14
2018-02-16T08:29:30.398Z,36.96
2018-02-16T08:30:32.879Z,36.75
2018-02-16T08:31:35.371Z,37.02
2018-02-16T08:32:37.880Z,37.32
2018-02-16T08:33:40.346Z,37.15
2018-02-16T08:34:42.821Z,37.34
2018-02-16T08:35:45.291Z,37.18
2018-02-16T08:36:47.782Z,37.07
2018-02-16T08:37:50.255Z,37.16
2018-02-16T08:38:52.740Z,37.34
2018-02-16T08:39:55.220Z,37.40
2018-02-16T08:40:57.682Z,37.23
2018-02-16T08:42:00.178Z,37.30
2018-02-16T08:43:02.680Z,37.30
2018-02-16T08:44:05.158Z,37.30
2018-02-16T08:45:07.661Z,37.39
2018-02-16T08:46:10.147Z,37.55
2018-02-16T08:47:12.640Z,37.75
2018-02-16T08:48:15.106Z,37.95
2018-02-16T08:49:17.588Z,38.15
2018-02-16T08:50:20.100Z,37.98
2018-02-16T08:51:22.631Z,37.80
2018-02-16T08:52:25.132Z,37.72
2018-02-16T08:53:27.599Z,37.61
2018-02-16T08:54:30.085Z,37.73
2018-02-16T08:55:32.569Z,37.76
2018-02-16T08:56:35.049Z,37.88
2018-02-16T08:57:37.684Z,38.09
2018-02-16T08:58:40.172Z,38.10
2018-02-16T08:59:42.657Z,37.98
2018-02-16T09:00:45.127Z,38.06
2018-02-16T09:01:47.590Z,38.38
2018-02-16T09:02:50.092Z,38.69
2018-02-16T09:03:52.580Z,38.83
2018-02-16T09:04:55.050Z,38.81
2018-02-16T09:05:57.532Z,38.82
2018-02-16T09:07:00.163Z,38.85
2018-02-16T09:08:02.659Z,38.81
2018-02-16T09:09:05.209Z,38.91
2018-02-16T09:10:07.756Z,39.16
2018-02-16T09:11:10.241Z,39.25
2018-02-16T09:12:12.733Z,39.27
2018-02-16T09:13:15.223Z,39.17
2018-02-16T09:14:17.694Z,39.18
2018-02-16T09:15:20.159Z,39.27
2018-02-16T09:16:22.656Z,39.30
2018-02-16T09:17:25.138Z,39.43
2018-02-16T09:18:28.458Z,39.53
2018-02-16T09:19:30.941Z,39.54
2018-02-16T09:20:33.420Z,39.63
2018-02-16T09:21:35.901Z,39.67
2018-02-16T09:22:38.378Z,39.62
2018-02-16T09:23:40.847Z,39.60
2018-02-16T09:24:43.324Z,39.48
2018-02-16T09:25:45.791Z,39.42
2018-02-16T09:26:48.272Z,39.42
2018-02-16T09:27:50.742Z,39.46
2018-02-16T09:28:53.202Z,39.50
2018-02-16T09:29:55.689Z,39.49
2018-02-16T09:30:58.154Z,39.55
2018-02-16T09:32:00.627Z,39.57
2018-02-16T09:33:03.104Z,39.62
2018-02-16T09:34:05.592Z,39.76
2018-02-16T09:35:08.150Z,39.63
2018-02-16T09:36:12.132Z,39.50
2018-02-16T09:37:15.482Z,39.36
2018-02-16T09:38:17.950Z,39.34
2018-02-16T09:39:21.450Z,39.36
2018-02-16T09:40:24.905Z,39.35
2018-02-16T09:41:27.370Z,39.40
2018-02-16T09:42:29.852Z,39.31
2018-02-16T09:43:32.322Z,39.26
2018-02-16T09:44:34.817Z,39.19
2018-02-16T09:45:37.344Z,39.20
2018-02-16T09:46:39.825Z,39.26
2018-02-16T09:47:42.290Z,39.27
2018-02-16T09:48:44.758Z,39.26
2018-02-16T09:49:47.254Z,39.34
2018-02-16T09:50:49.741Z,39.41
2018-02-16T09:51:52.216Z,39.47
2018-02-16T09:52:54.721Z,39.52
2018-02-16T09:53:57.210Z,39.55
2018-02-16T09:55:00.645Z,39.56
2018-02-16T09:56:03.145Z,39.60
2018-02-16T09:57:05.608Z,39.66
2018-02-16T09:58:08.153Z,39.71
2018-02-16T09:59:10.619Z,39.75
2018-02-16T10:00:13.107Z,39.78
2018-02-16T10:01:15.585Z,39.81
2018-02-16T10:02:18.069Z,39.86
2018-02-16T10:03:20.553Z,39.87
2018-02-16T10:04:23.041Z,39.90
2018-02-16T10:05:25.541Z,39.91
2018-02-16T10:06:28.010Z,39.93
2018-02-16T10:07:30.495Z,39.95
2018-02-16T10:08:32.962Z,39.93
2018-02-16T10:09:35.437Z,39.92
2018-02-16T10:10:37.948Z,39.95
2018-02-16T10:11:40.428Z,39.96
2018-02-16T10:12:42.917Z,39.99
2018-02-16T10:13:45.442Z,40.01
2018-02-16T10:14:47.922Z,39.99
2018-02-16T10:15:50.424Z,40.07
2018-02-16T10:16:52.908Z,40.13
2018-02-16T10:17:55.396Z,40.16
2018-02-16T10:18:57.873Z,40.09
2018-02-16T10:20:00.360Z,40.17
2018-02-16T10:21:02.845Z,40.34
2018-02-16T10:22:05.321Z,40.40
2018-02-16T10:23:08.038Z,40.31
2018-02-16T10:24:10.525Z,40.31
2018-02-16T10:25:13.005Z,40.30
2018-02-16T10:26:15.486Z,40.40
2018-02-16T10:27:17.962Z,40.30
2018-02-16T10:28:20.430Z,40.29
2018-02-16T10:29:22.925Z,40.30
2018-02-16T10:30:25.413Z,40.32
2018-02-16T10:31:27.921Z,40.37
2018-02-16T10:32:30.405Z,40.42
2018-02-16T10:33:32.877Z,40.39
2018-02-16T10:34:35.346Z,40.36
2018-02-16T10:35:37.821Z,40.42
2018-02-16T10:36:40.376Z,40.44
2018-02-16T10:37:42.838Z,40.38
2018-02-16T10:38:45.398Z,40.37
2018-02-16T10:39:47.873Z,40.42
2018-02-16T10:40:50.351Z,40.48
2018-02-16T10:41:52.834Z,40.46
2018-02-16T10:42:55.298Z,40.52
2018-02-16T10:43:57.766Z,40.49
2018-02-16T10:45:00.247Z,40.53
2018-02-16T10:46:02.718Z,40.52
2018-02-16T10:47:05.215Z,40.47
2018-02-16T10:48:07.693Z,40.46
2018-02-16T10:49:10.168Z,40.45
2018-02-16T10:50:12.635Z,40.49
2018-02-16T10:51:15.098Z,40.54
2018-02-16T10:52:17.598Z,40.49
2018-02-16T10:53:20.072Z,40.46
2018-02-16T10:54:22.557Z,40.46
2018-02-16T10:55:25.037Z,40.48
2018-02-16T10:56:27.503Z,40.50
2018-02-16T10:57:30.008Z,40.50
2018-02-16T10:58:32.513Z,40.50
2018-02-16T10:59:34.967Z,40.54
2018-02-16T11:00:43.224Z,40.54
2018-02-16T11:01:45.709Z,40.56
2018-02-16T11:02:53.852Z,40.60
2018-02-16T11:03:59.315Z,40.54
2018-02-16T11:05:07.487Z,40.54
2018-02-16T11:06:12.903Z,40.57
2018-02-16T11:07:29.841Z,40.64
2018-02-16T11:08:37.997Z,40.60
2018-02-16T11:09:40.472Z,40.64
2018-02-16T11:10:42.990Z,40.65
2018-02-16T11:11:45.479Z,40.61
2018-02-16T11:12:48.001Z,40.69
2018-02-16T11:13:50.463Z,40.68
2018-02-16T11:14:52.946Z,40.68
2018-02-16T11:15:55.427Z,40.62
2018-02-16T11:16:57.888Z,40.74
2018-02-16T11:18:00.369Z,40.84
2018-02-16T11:19:02.859Z,40.84
2018-02-16T11:20:05.349Z,40.81
2018-02-16T11:21:07.840Z,40.80
2018-02-16T11:22:10.302Z,40.78
2018-02-16T11:23:12.783Z,40.84
2018-02-16T11:24:15.311Z,40.88
2018-02-16T11:25:17.789Z,40.87
2018-02-16T11:26:20.262Z,40.86
2018-02-16T11:27:22.743Z,40.87
2018-02-16T11:28:25.246Z,40.89
2018-02-16T11:29:27.766Z,40.90
2018-02-16T11:30:30.231Z,40.90
2018-02-16T11:31:32.713Z,40.90
2018-02-16T11:32:35.186Z,40.92
2018-02-16T11:33:37.666Z,40.97
2018-02-16T11:34:40.157Z,40.94
2018-02-16T11:35:42.637Z,41.32
2018-02-16T11:36:45.113Z,41.16
2018-02-16T11:37:47.588Z,41.05
2018-02-16T11:38:50.128Z,41.85
2018-02-16T11:39:52.619Z,41.62
2018-02-16T11:40:55.083Z,41.56
2018-02-16T11:41:57.603Z,41.54
2018-02-16T11:43:00.093Z,41.58
2018-02-16T11:44:02.559Z,41.49
2018-02-16T11:45:05.043Z,41.46
2018-02-16T11:46:07.507Z,41.41
2018-02-16T11:47:09.988Z,41.36
2018-02-16T11:48:12.461Z,41.28
2018-02-16T11:49:14.931Z,41.17
2018-02-16T11:50:17.415Z,41.12
2018-02-16T11:51:19.882Z,41.08
2018-02-16T11:52:22.373Z,41.07
2018-02-16T11:53:24.834Z,41.00
2018-02-16T11:54:27.316Z,40.91
2018-02-16T11:55:29.820Z,40.86
2018-02-16T11:56:32.282Z,40.84
2018-02-16T11:57:34.769Z,40.86
2018-02-16T11:58:37.276Z,40.85
2018-02-16T11:59:39.742Z,40.78
2018-02-16T12:00:42.236Z,40.77
2018-02-16T12:01:44.721Z,40.75
2018-02-16T12:02:47.213Z,40.77
2018-02-16T12:03:49.704Z,40.79
2018-02-16T12:04:52.164Z,40.79
2018-02-16T12:05:54.664Z,40.78
2018-02-16T12:06:57.141Z,40.76
2018-02-16T12:07:59.624Z,40.76
2018-02-16T12:09:02.109Z,40.76
2018-02-16T12:10:04.575Z,40.76
2018-02-16T12:11:07.138Z,40.74
2018-02-16T12:12:09.621Z,40.73
2018-02-16T12:13:12.091Z,40.73
2018-02-16T12:14:14.577Z,40.70
2018-02-16T12:15:17.063Z,40.70
2018-02-16T12:16:19.547Z,40.67
2018-02-16T12:17:22.024Z,40.64
2018-02-16T12:18:24.502Z,40.65
2018-02-16T12:19:26.992Z,40.66
2018-02-16T12:20:29.679Z,40.65
2018-02-16T12:21:32.163Z,40.66
2018-02-16T12:22:34.626Z,40.65
2018-02-16T12:23:37.090Z,40.64
2018-02-16T12:24:39.554Z,40.65
2018-02-16T12:25:42.023Z,40.64
2018-02-16T12:26:44.503Z,40.65
2018-02-16T12:27:46.991Z,40.64
2018-02-16T12:28:49.473Z,40.64
2018-02-16T12:29:51.986Z,40.60
2018-02-16T12:30:54.469Z,40.62
2018-02-16T12:31:56.961Z,40.60
2018-02-16T12:32:59.465Z,40.60
2018-02-16T12:34:01.930Z,40.59
2018-02-16T12:35:04.446Z,40.60
2018-02-16T12:36:06.941Z,40.58
2018-02-16T12:37:09.449Z,40.60
2018-02-16T12:38:11.908Z,40.60
2018-02-16T12:39:14.390Z,40.58
2018-02-16T12:40:16.860Z,40.58
2018-02-16T12:41:19.327Z,40.58
2018-02-16T12:42:21.820Z,40.57
2018-02-16T12:43:24.279Z,40.59
2018-02-16T12:44:26.738Z,40.58
2018-02-16T12:45:29.210Z,40.59
2018-02-16T12:46:31.689Z,40.58
2018-02-16T12:47:34.176Z,40.57
2018-02-16T12:48:36.658Z,40.58
2018-02-16T12:49:39.210Z,40.57
2018-02-16T12:50:41.683Z,40.57
2018-02-16T12:51:44.149Z,40.57
2018-02-16T12:52:46.643Z,40.57
2018-02-16T12:53:49.111Z,40.57
2018-02-16T12:54:51.579Z,40.59
2018-02-16T12:55:54.058Z,40.58
2018-02-16T12:56:56.543Z,40.58
2018-02-16T12:57:59.061Z,40.58
2018-02-16T12:59:01.527Z,40.58
2018-02-16T13:00:04.003Z,40.59
2018-02-16T13:01:06.485Z,40.59
2018-02-16T13:02:08.954Z,40.59
2018-02-16T13:03:11.438Z,40.60
2018-02-16T13:04:13.918Z,40.57
2018-02-16T13:05:16.400Z,40.57
2018-02-16T13:06:18.877Z,40.57
2018-02-16T13:07:21.352Z,40.57
2018-02-16T13:08:23.835Z,40.57
2018-02-16T13:09:26.724Z,40.55
2018-02-16T13:10:29.272Z,40.55
2018-02-16T13:11:31.761Z,40.55
2018-02-16T13:12:34.226Z,40.52
2018-02-16T13:13:36.741Z,40.53
2018-02-16T13:14:39.225Z,40.53
2018-02-16T13:15:41.690Z,40.52
2018-02-16T13:16:44.169Z,40.53
2018-02-16T13:17:46.641Z,40.53
2018-02-16T13:18:49.142Z,40.52
2018-02-16T13:19:51.629Z,40.53
2018-02-16T13:20:54.116Z,40.53
2018-02-16T13:21:56.595Z,40.54
2018-02-16T13:22:59.058Z,40.54
2018-02-16T13:24:01.543Z,40.53
2018-02-16T13:25:04.091Z,40.54